sensor_id;sensor_type;location;lat;lon;timestamp;temperature;humidity
23122;DHT22;11730;51.248;22.534;2022-08-01T00:00:07;16.60;99.90
23122;DHT22;11730;51.248;22.534;2022-08-01T00:02:39;16.60;99.90
23122;DHT22;11730;51.248;22.534;2022-08-01T00:05:07;16.70;99.90
23122;DHT22;11730;51.248;22.534;2022-08-01T00:07:35;16.60;99.90
23122;DHT22;11730;51.248;22.534;2022-08-01T00:10:04;16.50;99.90
23122;DHT22;11730;51.248;22.534;2022-08-01T00:12:31;16.50;99.90
23122;DHT22;11730;51.248;22.534;2022-08-01T00:14:58;16.60;99.90
23122;DHT22;11730;51.248;22.534;2022-08-01T00:17:25;16.50;99.90
23122;DHT22;11730;51.248;22.534;2022-08-01T00:19:52;16.40;99.90
23122;DHT22;11730;51.248;22.534;2022-08-01T00:22:19;16.50;99.90
23122;DHT22;11730;51.248;22.534;2022-08-01T00:24:46;16.40;99.90
23122;DHT22;11730;51.248;22.534;2022-08-01T00:27:13;16.40;99.90
23122;DHT22;11730;51.248;22.534;2022-08-01T00:29:39;16.40;99.90
23122;DHT22;11730;51.248;22.534;2022-08-01T00:32:26;16.30;99.90
23122;DHT22;11730;51.248;22.534;2022-08-01T00:34:53;16.30;99.90
23122;DHT22;11730;51.248;22.534;2022-08-01T00:37:21;16.20;99.90
23122;DHT22;11730;51.248;22.534;2022-08-01T00:39:48;16.10;99.90
23122;DHT22;11730;51.248;22.534;2022-08-01T00:42:15;16.20;99.90
23122;DHT22;11730;51.248;22.534;2022-08-01T00:44:42;16.00;99.90
23122;DHT22;11730;51.248;22.534;2022-08-01T00:47:09;16.10;99.90
23122;DHT22;11730;51.248;22.534;2022-08-01T00:49:36;16.20;99.90
23122;DHT22;11730;51.248;22.534;2022-08-01T00:52:05;16.10;99.90
23122;DHT22;11730;51.248;22.534;2022-08-01T00:54:33;16.10;99.90
23122;DHT22;11730;51.248;22.534;2022-08-01T00:57:00;16.10;99.90
23122;DHT22;11730;51.248;22.534;2022-08-01T00:59:27;16.00;99.90
23122;DHT22;11730;51.248;22.534;2022-08-01T01:01:55;16.00;99.90
23122;DHT22;11730;51.248;22.534;2022-08-01T01:04:22;16.10;99.90
23122;DHT22;11730;51.248;22.534;2022-08-01T01:07:19;16.10;99.90
23122;DHT22;11730;51.248;22.534;2022-08-01T01:13:06;16.10;99.90
23122;DHT22;11730;51.248;22.534;2022-08-01T01:15:39;16.10;99.90
23122;DHT22;11730;51.248;22.534;2022-08-01T01:18:35;16.10;99.90
23122;DHT22;11730;51.248;22.534;2022-08-01T01:26:56;16.20;99.90
23122;DHT22;11730;51.248;22.534;2022-08-01T01:32:21;16.10;99.90
23122;DHT22;11730;51.248;22.534;2022-08-01T01:34:56;16.10;99.90
23122;DHT22;11730;51.248;22.534;2022-08-01T01:37:26;16.20;99.90
23122;DHT22;11730;51.248;22.534;2022-08-01T01:39:54;16.20;99.90
23122;DHT22;11730;51.248;22.534;2022-08-01T01:42:23;16.20;99.90
23122;DHT22;11730;51.248;22.534;2022-08-01T01:44:53;16.10;99.90
23122;DHT22;11730;51.248;22.534;2022-08-01T01:47:21;16.00;99.90
23122;DHT22;11730;51.248;22.534;2022-08-01T01:49:49;16.00;99.90
23122;DHT22;11730;51.248;22.534;2022-08-01T01:52:18;16.00;99.90
23122;DHT22;11730;51.248;22.534;2022-08-01T01:54:48;16.10;99.90
23122;DHT22;11730;51.248;22.534;2022-08-01T01:57:17;16.20;99.90
23122;DHT22;11730;51.248;22.534;2022-08-01T01:59:46;16.10;99.90
23122;DHT22;11730;51.248;22.534;2022-08-01T02:02:14;16.10;99.90
23122;DHT22;11730;51.248;22.534;2022-08-01T02:04:45;16.20;99.90
23122;DHT22;11730;51.248;22.534;2022-08-01T02:07:24;16.20;99.90
23122;DHT22;11730;51.248;22.534;2022-08-01T02:09:53;16.20;99.90
23122;DHT22;11730;51.248;22.534;2022-08-01T02:12:20;16.10;99.90
23122;DHT22;11730;51.248;22.534;2022-08-01T02:14:53;16.10;99.90
23122;DHT22;11730;51.248;22.534;2022-08-01T02:17:22;16.00;99.90
23122;DHT22;11730;51.248;22.534;2022-08-01T02:19:51;16.00;99.90
23122;DHT22;11730;51.248;22.534;2022-08-01T02:22:44;16.00;99.90
23122;DHT22;11730;51.248;22.534;2022-08-01T02:28:01;16.00;99.90
23122;DHT22;11730;51.248;22.534;2022-08-01T02:30:33;15.90;99.90
23122;DHT22;11730;51.248;22.534;2022-08-01T02:33:08;15.80;99.90
23122;DHT22;11730;51.248;22.534;2022-08-01T02:35:43;15.90;99.90
23122;DHT22;11730;51.248;22.534;2022-08-01T02:38:35;15.80;99.90
23122;DHT22;11730;51.248;22.534;2022-08-01T02:41:08;15.80;99.90
23122;DHT22;11730;51.248;22.534;2022-08-01T02:43:43;15.70;99.90
23122;DHT22;11730;51.248;22.534;2022-08-01T02:46:26;15.70;99.90
23122;DHT22;11730;51.248;22.534;2022-08-01T02:48:55;15.80;99.90
23122;DHT22;11730;51.248;22.534;2022-08-01T02:51:24;15.70;99.90
23122;DHT22;11730;51.248;22.534;2022-08-01T02:53:53;15.70;99.90
23122;DHT22;11730;51.248;22.534;2022-08-01T02:56:22;15.60;99.90
23122;DHT22;11730;51.248;22.534;2022-08-01T02:58:50;15.60;99.90
23122;DHT22;11730;51.248;22.534;2022-08-01T03:01:19;15.50;99.90
23122;DHT22;11730;51.248;22.534;2022-08-01T03:03:47;15.50;99.90
23122;DHT22;11730;51.248;22.534;2022-08-01T03:06:15;15.40;99.90
23122;DHT22;11730;51.248;22.534;2022-08-01T03:08:45;15.40;99.90
23122;DHT22;11730;51.248;22.534;2022-08-01T03:11:13;15.40;99.90
23122;DHT22;11730;51.248;22.534;2022-08-01T03:13:43;15.40;99.90
23122;DHT22;11730;51.248;22.534;2022-08-01T03:16:12;15.40;99.90
23122;DHT22;11730;51.248;22.534;2022-08-01T03:18:41;15.40;99.90
23122;DHT22;11730;51.248;22.534;2022-08-01T03:21:10;15.40;99.90
23122;DHT22;11730;51.248;22.534;2022-08-01T03:23:39;15.50;99.90
23122;DHT22;11730;51.248;22.534;2022-08-01T03:26:08;15.60;99.90
23122;DHT22;11730;51.248;22.534;2022-08-01T03:28:37;15.60;99.90
23122;DHT22;11730;51.248;22.534;2022-08-01T03:31:05;15.50;99.90
23122;DHT22;11730;51.248;22.534;2022-08-01T03:33:32;15.50;99.90
23122;DHT22;11730;51.248;22.534;2022-08-01T03:36:00;15.50;99.90
23122;DHT22;11730;51.248;22.534;2022-08-01T03:38:30;15.60;99.90
23122;DHT22;11730;51.248;22.534;2022-08-01T03:41:09;15.50;99.90
23122;DHT22;11730;51.248;22.534;2022-08-01T03:43:39;15.60;99.90
23122;DHT22;11730;51.248;22.534;2022-08-01T03:46:13;15.50;99.90
23122;DHT22;11730;51.248;22.534;2022-08-01T03:48:47;15.50;99.90
23122;DHT22;11730;51.248;22.534;2022-08-01T03:51:15;15.50;99.90
23122;DHT22;11730;51.248;22.534;2022-08-01T03:53:44;15.60;99.90
23122;DHT22;11730;51.248;22.534;2022-08-01T03:56:13;15.60;99.90
23122;DHT22;11730;51.248;22.534;2022-08-01T03:58:43;15.60;99.90
23122;DHT22;11730;51.248;22.534;2022-08-01T04:01:16;15.70;99.90
23122;DHT22;11730;51.248;22.534;2022-08-01T04:03:44;15.50;99.90
23122;DHT22;11730;51.248;22.534;2022-08-01T04:06:11;15.70;99.90
23122;DHT22;11730;51.248;22.534;2022-08-01T04:08:40;15.70;99.90
23122;DHT22;11730;51.248;22.534;2022-08-01T04:11:08;15.60;99.90
23122;DHT22;11730;51.248;22.534;2022-08-01T04:13:36;15.60;99.90
23122;DHT22;11730;51.248;22.534;2022-08-01T04:16:04;15.60;99.90
23122;DHT22;11730;51.248;22.534;2022-08-01T04:18:32;15.60;99.90
23122;DHT22;11730;51.248;22.534;2022-08-01T04:20:59;15.60;99.90
23122;DHT22;11730;51.248;22.534;2022-08-01T04:23:27;15.60;99.90
23122;DHT22;11730;51.248;22.534;2022-08-01T04:25:59;15.70;99.90
23122;DHT22;11730;51.248;22.534;2022-08-01T04:28:32;15.70;99.90
23122;DHT22;11730;51.248;22.534;2022-08-01T04:31:01;15.70;99.90
23122;DHT22;11730;51.248;22.534;2022-08-01T04:33:29;15.70;99.90
23122;DHT22;11730;51.248;22.534;2022-08-01T04:35:58;15.80;99.90
23122;DHT22;11730;51.248;22.534;2022-08-01T04:38:33;15.70;99.90
23122;DHT22;11730;51.248;22.534;2022-08-01T04:41:04;15.70;99.90
23122;DHT22;11730;51.248;22.534;2022-08-01T04:43:36;15.70;99.90
23122;DHT22;11730;51.248;22.534;2022-08-01T04:46:03;15.50;99.90
23122;DHT22;11730;51.248;22.534;2022-08-01T04:48:32;15.50;99.90
23122;DHT22;11730;51.248;22.534;2022-08-01T04:51:01;15.40;99.90
23122;DHT22;11730;51.248;22.534;2022-08-01T04:53:28;15.50;99.90
23122;DHT22;11730;51.248;22.534;2022-08-01T04:55:55;15.50;99.90
23122;DHT22;11730;51.248;22.534;2022-08-01T04:58:22;15.50;99.90
23122;DHT22;11730;51.248;22.534;2022-08-01T05:00:49;15.50;99.90
23122;DHT22;11730;51.248;22.534;2022-08-01T05:03:16;15.50;99.90
23122;DHT22;11730;51.248;22.534;2022-08-01T05:05:43;15.50;99.90
23122;DHT22;11730;51.248;22.534;2022-08-01T05:08:10;15.60;99.90
23122;DHT22;11730;51.248;22.534;2022-08-01T05:10:37;15.50;99.90
23122;DHT22;11730;51.248;22.534;2022-08-01T05:13:04;15.60;99.90
23122;DHT22;11730;51.248;22.534;2022-08-01T05:15:34;15.60;99.90
23122;DHT22;11730;51.248;22.534;2022-08-01T05:18:03;15.50;99.90
23122;DHT22;11730;51.248;22.534;2022-08-01T05:20:30;15.60;99.90
23122;DHT22;11730;51.248;22.534;2022-08-01T05:22:58;15.70;99.90
23122;DHT22;11730;51.248;22.534;2022-08-01T05:25:25;15.80;99.90
23122;DHT22;11730;51.248;22.534;2022-08-01T05:28:12;15.80;99.90
23122;DHT22;11730;51.248;22.534;2022-08-01T05:30:45;15.80;99.90
23122;DHT22;11730;51.248;22.534;2022-08-01T05:33:12;15.80;99.90
23122;DHT22;11730;51.248;22.534;2022-08-01T05:35:39;15.80;99.90
23122;DHT22;11730;51.248;22.534;2022-08-01T05:38:15;15.90;99.90
23122;DHT22;11730;51.248;22.534;2022-08-01T05:40:42;15.90;99.90
23122;DHT22;11730;51.248;22.534;2022-08-01T05:43:09;15.80;99.90
23122;DHT22;11730;51.248;22.534;2022-08-01T05:45:36;15.70;99.90
23122;DHT22;11730;51.248;22.534;2022-08-01T05:48:03;15.80;99.90
23122;DHT22;11730;51.248;22.534;2022-08-01T05:50:31;15.80;99.90
23122;DHT22;11730;51.248;22.534;2022-08-01T05:52:59;16.00;99.90
23122;DHT22;11730;51.248;22.534;2022-08-01T05:55:26;16.10;99.90
23122;DHT22;11730;51.248;22.534;2022-08-01T05:57:53;16.10;99.90
23122;DHT22;11730;51.248;22.534;2022-08-01T06:00:19;16.20;99.90
23122;DHT22;11730;51.248;22.534;2022-08-01T06:02:47;16.10;99.90
23122;DHT22;11730;51.248;22.534;2022-08-01T06:05:14;16.10;99.90
23122;DHT22;11730;51.248;22.534;2022-08-01T06:07:41;16.00;99.90
23122;DHT22;11730;51.248;22.534;2022-08-01T06:10:08;16.00;99.90
23122;DHT22;11730;51.248;22.534;2022-08-01T06:12:36;15.90;99.90
23122;DHT22;11730;51.248;22.534;2022-08-01T06:15:04;16.00;99.90
23122;DHT22;11730;51.248;22.534;2022-08-01T06:17:32;16.10;99.90
23122;DHT22;11730;51.248;22.534;2022-08-01T06:19:59;16.00;99.90
23122;DHT22;11730;51.248;22.534;2022-08-01T06:22:26;15.90;99.90
23122;DHT22;11730;51.248;22.534;2022-08-01T06:24:53;15.90;99.90
23122;DHT22;11730;51.248;22.534;2022-08-01T06:27:21;15.90;99.90
23122;DHT22;11730;51.248;22.534;2022-08-01T06:29:48;16.00;99.90
23122;DHT22;11730;51.248;22.534;2022-08-01T06:32:20;16.10;99.90
23122;DHT22;11730;51.248;22.534;2022-08-01T06:34:53;16.00;99.90
23122;DHT22;11730;51.248;22.534;2022-08-01T06:37:21;16.10;99.90
23122;DHT22;11730;51.248;22.534;2022-08-01T06:39:49;16.10;99.90
23122;DHT22;11730;51.248;22.534;2022-08-01T06:42:16;16.20;99.90
23122;DHT22;11730;51.248;22.534;2022-08-01T06:44:44;16.30;99.90
23122;DHT22;11730;51.248;22.534;2022-08-01T06:47:12;16.30;99.90
23122;DHT22;11730;51.248;22.534;2022-08-01T06:49:39;16.20;99.90
23122;DHT22;11730;51.248;22.534;2022-08-01T06:52:06;16.20;99.90
23122;DHT22;11730;51.248;22.534;2022-08-01T06:54:33;16.40;99.90
23122;DHT22;11730;51.248;22.534;2022-08-01T06:57:00;16.60;99.90
23122;DHT22;11730;51.248;22.534;2022-08-01T06:59:31;16.80;99.90
23122;DHT22;11730;51.248;22.534;2022-08-01T07:01:57;16.90;99.90
23122;DHT22;11730;51.248;22.534;2022-08-01T07:04:24;16.80;99.90
23122;DHT22;11730;51.248;22.534;2022-08-01T07:06:51;16.70;99.90
23122;DHT22;11730;51.248;22.534;2022-08-01T07:09:18;16.70;99.90
23122;DHT22;11730;51.248;22.534;2022-08-01T07:11:45;16.70;99.90
23122;DHT22;11730;51.248;22.534;2022-08-01T07:14:12;16.70;99.90
23122;DHT22;11730;51.248;22.534;2022-08-01T07:16:39;16.80;99.90
23122;DHT22;11730;51.248;22.534;2022-08-01T07:19:06;16.60;99.90
23122;DHT22;11730;51.248;22.534;2022-08-01T07:21:33;16.60;99.90
23122;DHT22;11730;51.248;22.534;2022-08-01T07:24:09;16.60;99.90
23122;DHT22;11730;51.248;22.534;2022-08-01T07:26:45;16.70;99.90
23122;DHT22;11730;51.248;22.534;2022-08-01T07:29:26;16.90;99.90
23122;DHT22;11730;51.248;22.534;2022-08-01T07:31:54;17.20;99.90
23122;DHT22;11730;51.248;22.534;2022-08-01T07:34:22;17.30;99.90
23122;DHT22;11730;51.248;22.534;2022-08-01T07:36:49;17.40;99.90
23122;DHT22;11730;51.248;22.534;2022-08-01T07:39:16;17.40;99.90
23122;DHT22;11730;51.248;22.534;2022-08-01T07:41:43;17.50;99.90
23122;DHT22;11730;51.248;22.534;2022-08-01T07:44:30;17.60;99.90
23122;DHT22;11730;51.248;22.534;2022-08-01T07:46:57;17.90;99.90
23122;DHT22;11730;51.248;22.534;2022-08-01T07:49:24;18.00;99.90
23122;DHT22;11730;51.248;22.534;2022-08-01T07:51:51;18.20;99.90
23122;DHT22;11730;51.248;22.534;2022-08-01T07:54:39;18.30;99.90
23122;DHT22;11730;51.248;22.534;2022-08-01T07:57:06;18.60;99.90
23122;DHT22;11730;51.248;22.534;2022-08-01T07:59:34;18.70;99.90
23122;DHT22;11730;51.248;22.534;2022-08-01T08:02:01;18.90;99.90
23122;DHT22;11730;51.248;22.534;2022-08-01T08:04:29;19.00;99.90
23122;DHT22;11730;51.248;22.534;2022-08-01T08:06:56;19.00;99.90
23122;DHT22;11730;51.248;22.534;2022-08-01T08:09:23;19.00;99.90
23122;DHT22;11730;51.248;22.534;2022-08-01T08:11:50;19.20;99.90
23122;DHT22;11730;51.248;22.534;2022-08-01T08:14:18;19.80;99.90
23122;DHT22;11730;51.248;22.534;2022-08-01T08:16:45;20.50;99.90
23122;DHT22;11730;51.248;22.534;2022-08-01T08:19:12;20.80;99.90
23122;DHT22;11730;51.248;22.534;2022-08-01T08:21:39;21.70;99.90
23122;DHT22;11730;51.248;22.534;2022-08-01T08:24:07;22.50;99.90
23122;DHT22;11730;51.248;22.534;2022-08-01T08:26:57;23.20;99.90
23122;DHT22;11730;51.248;22.534;2022-08-01T08:29:25;23.60;99.90
23122;DHT22;11730;51.248;22.534;2022-08-01T08:31:53;24.10;99.90
23122;DHT22;11730;51.248;22.534;2022-08-01T08:34:23;24.10;99.90
23122;DHT22;11730;51.248;22.534;2022-08-01T08:36:50;24.40;99.90
23122;DHT22;11730;51.248;22.534;2022-08-01T08:39:18;24.10;99.90
23122;DHT22;11730;51.248;22.534;2022-08-01T08:41:46;23.50;99.90
23122;DHT22;11730;51.248;22.534;2022-08-01T08:44:16;23.30;99.90
23122;DHT22;11730;51.248;22.534;2022-08-01T08:46:48;22.40;99.90
23122;DHT22;11730;51.248;22.534;2022-08-01T08:49:21;22.10;99.90
23122;DHT22;11730;51.248;22.534;2022-08-01T08:51:51;22.60;99.90
23122;DHT22;11730;51.248;22.534;2022-08-01T08:54:21;22.50;99.90
23122;DHT22;11730;51.248;22.534;2022-08-01T08:56:57;22.20;99.90
23122;DHT22;11730;51.248;22.534;2022-08-01T08:59:25;22.20;99.90
23122;DHT22;11730;51.248;22.534;2022-08-01T09:01:53;21.80;99.90
23122;DHT22;11730;51.248;22.534;2022-08-01T09:04:21;22.30;99.90
23122;DHT22;11730;51.248;22.534;2022-08-01T09:06:53;22.10;99.90
23122;DHT22;11730;51.248;22.534;2022-08-01T09:09:22;22.10;99.90
23122;DHT22;11730;51.248;22.534;2022-08-01T09:11:49;21.80;99.90
23122;DHT22;11730;51.248;22.534;2022-08-01T09:14:24;22.00;99.90
23122;DHT22;11730;51.248;22.534;2022-08-01T09:17:08;22.60;99.90
23122;DHT22;11730;51.248;22.534;2022-08-01T09:19:42;23.20;99.90
23122;DHT22;11730;51.248;22.534;2022-08-01T09:22:12;23.30;99.90
23122;DHT22;11730;51.248;22.534;2022-08-01T09:24:39;23.30;99.90
23122;DHT22;11730;51.248;22.534;2022-08-01T09:27:25;23.40;99.90
23122;DHT22;11730;51.248;22.534;2022-08-01T09:29:53;23.80;99.90
23122;DHT22;11730;51.248;22.534;2022-08-01T09:32:29;24.30;99.90
23122;DHT22;11730;51.248;22.534;2022-08-01T09:35:31;24.80;99.80
23122;DHT22;11730;51.248;22.534;2022-08-01T09:38:35;24.90;98.20
23122;DHT22;11730;51.248;22.534;2022-08-01T09:41:02;24.80;97.80
23122;DHT22;11730;51.248;22.534;2022-08-01T09:43:30;24.80;97.00
23122;DHT22;11730;51.248;22.534;2022-08-01T09:45:59;24.50;98.10
23122;DHT22;11730;51.248;22.534;2022-08-01T09:48:26;23.90;97.60
23122;DHT22;11730;51.248;22.534;2022-08-01T09:50:57;24.60;97.90
23122;DHT22;11730;51.248;22.534;2022-08-01T09:53:48;25.20;98.20
23122;DHT22;11730;51.248;22.534;2022-08-01T09:56:19;25.60;96.60
23122;DHT22;11730;51.248;22.534;2022-08-01T10:01:27;26.30;95.10
23122;DHT22;11730;51.248;22.534;2022-08-01T10:06:36;26.20;93.80
23122;DHT22;11730;51.248;22.534;2022-08-01T10:09:03;25.80;92.30
23122;DHT22;11730;51.248;22.534;2022-08-01T10:11:31;26.20;92.80
23122;DHT22;11730;51.248;22.534;2022-08-01T10:14:02;26.80;93.20
23122;DHT22;11730;51.248;22.534;2022-08-01T10:16:30;27.70;91.60
23122;DHT22;11730;51.248;22.534;2022-08-01T10:18:59;26.90;91.00
23122;DHT22;11730;51.248;22.534;2022-08-01T10:21:29;26.80;88.50
23122;DHT22;11730;51.248;22.534;2022-08-01T10:24:20;26.40;87.50
23122;DHT22;11730;51.248;22.534;2022-08-01T10:26:58;27.40;87.30
23122;DHT22;11730;51.248;22.534;2022-08-01T10:29:43;27.50;86.20
23122;DHT22;11730;51.248;22.534;2022-08-01T10:32:33;27.40;86.00
23122;DHT22;11730;51.248;22.534;2022-08-01T10:35:04;28.00;81.90
23122;DHT22;11730;51.248;22.534;2022-08-01T10:37:34;28.20;82.40
23122;DHT22;11730;51.248;22.534;2022-08-01T10:40:18;28.00;80.90
23122;DHT22;11730;51.248;22.534;2022-08-01T10:42:56;28.50;80.30
23122;DHT22;11730;51.248;22.534;2022-08-01T10:45:24;28.00;78.70
23122;DHT22;11730;51.248;22.534;2022-08-01T10:50:48;29.00;79.60
23122;DHT22;11730;51.248;22.534;2022-08-01T10:53:21;29.10;76.80
23122;DHT22;11730;51.248;22.534;2022-08-01T10:58:38;30.00;72.80
23122;DHT22;11730;51.248;22.534;2022-08-01T11:03:43;30.20;72.70
23122;DHT22;11730;51.248;22.534;2022-08-01T11:06:28;29.70;70.60
23122;DHT22;11730;51.248;22.534;2022-08-01T11:12:10;30.60;69.40
23122;DHT22;11730;51.248;22.534;2022-08-01T11:20:18;30.00;66.10
23122;DHT22;11730;51.248;22.534;2022-08-01T11:28:25;28.20;66.70
23122;DHT22;11730;51.248;22.534;2022-08-01T11:38:49;31.40;66.70
23122;DHT22;11730;51.248;22.534;2022-08-01T11:41:23;31.30;65.40
23122;DHT22;11730;51.248;22.534;2022-08-01T11:52:33;30.70;62.10
23122;DHT22;11730;51.248;22.534;2022-08-01T11:57:30;30.20;63.00
23122;DHT22;11730;51.248;22.534;2022-08-01T12:00:12;29.10;62.60
23122;DHT22;11730;51.248;22.534;2022-08-01T12:02:43;28.90;64.20
23122;DHT22;11730;51.248;22.534;2022-08-01T12:05:13;28.80;64.90
23122;DHT22;11730;51.248;22.534;2022-08-01T12:07:42;29.10;66.50
23122;DHT22;11730;51.248;22.534;2022-08-01T12:10:18;29.50;66.40
23122;DHT22;11730;51.248;22.534;2022-08-01T12:12:47;29.50;66.80
23122;DHT22;11730;51.248;22.534;2022-08-01T12:15:18;30.90;65.40
23122;DHT22;11730;51.248;22.534;2022-08-01T12:17:48;30.50;64.10
23122;DHT22;11730;51.248;22.534;2022-08-01T12:20:29;30.80;61.70
23122;DHT22;11730;51.248;22.534;2022-08-01T12:23:09;30.90;60.30
23122;DHT22;11730;51.248;22.534;2022-08-01T12:25:37;30.20;56.10
23122;DHT22;11730;51.248;22.534;2022-08-01T12:28:08;29.60;59.40
23122;DHT22;11730;51.248;22.534;2022-08-01T12:30:36;29.80;58.70
23122;DHT22;11730;51.248;22.534;2022-08-01T12:33:05;29.40;58.80
23122;DHT22;11730;51.248;22.534;2022-08-01T12:35:33;30.00;59.00
23122;DHT22;11730;51.248;22.534;2022-08-01T12:38:06;30.40;60.30
23122;DHT22;11730;51.248;22.534;2022-08-01T12:40:35;30.60;57.50
23122;DHT22;11730;51.248;22.534;2022-08-01T12:43:09;30.10;57.40
23122;DHT22;11730;51.248;22.534;2022-08-01T12:45:53;30.50;59.20
23122;DHT22;11730;51.248;22.534;2022-08-01T12:48:23;29.50;57.00
23122;DHT22;11730;51.248;22.534;2022-08-01T12:50:51;30.10;58.30
23122;DHT22;11730;51.248;22.534;2022-08-01T12:53:20;29.50;58.40
23122;DHT22;11730;51.248;22.534;2022-08-01T12:55:50;29.60;54.70
23122;DHT22;11730;51.248;22.534;2022-08-01T12:58:34;28.70;55.00
23122;DHT22;11730;51.248;22.534;2022-08-01T13:01:09;29.00;58.30
23122;DHT22;11730;51.248;22.534;2022-08-01T13:03:37;29.90;56.20
23122;DHT22;11730;51.248;22.534;2022-08-01T13:06:23;29.70;56.80
23122;DHT22;11730;51.248;22.534;2022-08-01T13:08:54;30.60;57.80
23122;DHT22;11730;51.248;22.534;2022-08-01T13:11:21;30.60;56.30
23122;DHT22;11730;51.248;22.534;2022-08-01T13:13:50;30.90;57.20
23122;DHT22;11730;51.248;22.534;2022-08-01T13:16:19;31.60;56.40
23122;DHT22;11730;51.248;22.534;2022-08-01T13:19:00;31.60;56.30
23122;DHT22;11730;51.248;22.534;2022-08-01T13:21:29;31.00;55.70
23122;DHT22;11730;51.248;22.534;2022-08-01T13:24:23;30.60;58.10
23122;DHT22;11730;51.248;22.534;2022-08-01T13:27:04;30.80;56.30
23122;DHT22;11730;51.248;22.534;2022-08-01T13:29:39;30.40;56.60
23122;DHT22;11730;51.248;22.534;2022-08-01T13:32:17;31.20;59.10
23122;DHT22;11730;51.248;22.534;2022-08-01T13:35:09;30.80;58.50
23122;DHT22;11730;51.248;22.534;2022-08-01T13:37:37;30.30;58.20
23122;DHT22;11730;51.248;22.534;2022-08-01T13:40:06;29.40;58.30
23122;DHT22;11730;51.248;22.534;2022-08-01T13:42:34;29.20;59.60
23122;DHT22;11730;51.248;22.534;2022-08-01T13:45:05;29.60;60.30
23122;DHT22;11730;51.248;22.534;2022-08-01T13:47:44;30.00;61.50
23122;DHT22;11730;51.248;22.534;2022-08-01T13:50:31;29.50;58.50
23122;DHT22;11730;51.248;22.534;2022-08-01T13:52:58;29.60;60.30
23122;DHT22;11730;51.248;22.534;2022-08-01T13:55:25;29.80;60.20
23122;DHT22;11730;51.248;22.534;2022-08-01T13:57:59;29.90;60.70
23122;DHT22;11730;51.248;22.534;2022-08-01T14:00:26;30.00;56.30
23122;DHT22;11730;51.248;22.534;2022-08-01T14:02:53;30.00;56.50
23122;DHT22;11730;51.248;22.534;2022-08-01T14:05:20;29.50;57.20
23122;DHT22;11730;51.248;22.534;2022-08-01T14:07:47;29.40;56.50
23122;DHT22;11730;51.248;22.534;2022-08-01T14:10:14;29.40;56.20
23122;DHT22;11730;51.248;22.534;2022-08-01T14:12:47;29.50;55.90
23122;DHT22;11730;51.248;22.534;2022-08-01T14:15:14;30.00;54.00
23122;DHT22;11730;51.248;22.534;2022-08-01T14:18:02;29.90;54.90
23122;DHT22;11730;51.248;22.534;2022-08-01T14:20:31;30.30;54.90
23122;DHT22;11730;51.248;22.534;2022-08-01T14:22:58;30.00;55.10
23122;DHT22;11730;51.248;22.534;2022-08-01T14:25:25;29.50;55.30
23122;DHT22;11730;51.248;22.534;2022-08-01T14:28:12;29.50;55.30
23122;DHT22;11730;51.248;22.534;2022-08-01T14:30:39;29.50;57.60
23122;DHT22;11730;51.248;22.534;2022-08-01T14:33:12;29.50;54.90
23122;DHT22;11730;51.248;22.534;2022-08-01T14:35:40;29.50;57.20
23122;DHT22;11730;51.248;22.534;2022-08-01T14:38:27;29.10;55.80
23122;DHT22;11730;51.248;22.534;2022-08-01T14:40:59;29.60;57.20
23122;DHT22;11730;51.248;22.534;2022-08-01T14:43:26;29.90;56.20
23122;DHT22;11730;51.248;22.534;2022-08-01T14:46:00;29.80;54.40
23122;DHT22;11730;51.248;22.534;2022-08-01T14:48:27;29.50;54.80
23122;DHT22;11730;51.248;22.534;2022-08-01T14:50:56;29.20;56.30
23122;DHT22;11730;51.248;22.534;2022-08-01T14:53:23;28.70;57.50
23122;DHT22;11730;51.248;22.534;2022-08-01T14:55:50;28.50;59.20
23122;DHT22;11730;51.248;22.534;2022-08-01T14:58:17;28.60;59.90
23122;DHT22;11730;51.248;22.534;2022-08-01T15:00:44;28.70;58.60
23122;DHT22;11730;51.248;22.534;2022-08-01T15:03:12;28.60;59.00
23122;DHT22;11730;51.248;22.534;2022-08-01T15:05:39;28.50;60.60
23122;DHT22;11730;51.248;22.534;2022-08-01T15:08:06;27.90;60.40
23122;DHT22;11730;51.248;22.534;2022-08-01T15:10:33;28.20;60.30
23122;DHT22;11730;51.248;22.534;2022-08-01T15:13:00;28.80;61.30
23122;DHT22;11730;51.248;22.534;2022-08-01T15:15:28;28.20;60.20
23122;DHT22;11730;51.248;22.534;2022-08-01T15:17:55;27.90;63.20
23122;DHT22;11730;51.248;22.534;2022-08-01T15:20:23;28.00;61.60
23122;DHT22;11730;51.248;22.534;2022-08-01T15:22:50;27.70;62.80
23122;DHT22;11730;51.248;22.534;2022-08-01T15:25:17;27.80;61.80
23122;DHT22;11730;51.248;22.534;2022-08-01T15:27:44;28.20;63.60
23122;DHT22;11730;51.248;22.534;2022-08-01T15:30:11;27.80;62.90
23122;DHT22;11730;51.248;22.534;2022-08-01T15:32:38;27.00;62.20
23122;DHT22;11730;51.248;22.534;2022-08-01T15:35:06;27.00;64.90
23122;DHT22;11730;51.248;22.534;2022-08-01T15:37:33;27.50;65.90
23122;DHT22;11730;51.248;22.534;2022-08-01T15:40:06;27.20;64.80
23122;DHT22;11730;51.248;22.534;2022-08-01T15:42:33;27.10;65.50
23122;DHT22;11730;51.248;22.534;2022-08-01T15:45:01;26.70;65.90
23122;DHT22;11730;51.248;22.534;2022-08-01T15:47:29;26.70;65.20
23122;DHT22;11730;51.248;22.534;2022-08-01T15:49:56;26.60;66.50
23122;DHT22;11730;51.248;22.534;2022-08-01T15:52:26;26.70;67.20
23122;DHT22;11730;51.248;22.534;2022-08-01T15:54:57;26.50;66.40
23122;DHT22;11730;51.248;22.534;2022-08-01T15:57:24;26.50;67.50
23122;DHT22;11730;51.248;22.534;2022-08-01T15:59:51;25.60;66.90
23122;DHT22;11730;51.248;22.534;2022-08-01T16:02:18;26.10;66.80
23122;DHT22;11730;51.248;22.534;2022-08-01T16:04:45;25.60;67.50
23122;DHT22;11730;51.248;22.534;2022-08-01T16:07:13;25.50;69.70
23122;DHT22;11730;51.248;22.534;2022-08-01T16:09:40;25.50;69.20
23122;DHT22;11730;51.248;22.534;2022-08-01T16:12:07;25.40;70.20
23122;DHT22;11730;51.248;22.534;2022-08-01T16:14:35;25.20;69.20
23122;DHT22;11730;51.248;22.534;2022-08-01T16:17:02;25.00;70.20
23122;DHT22;11730;51.248;22.534;2022-08-01T16:19:29;24.90;70.90
23122;DHT22;11730;51.248;22.534;2022-08-01T16:21:56;25.00;70.30
23122;DHT22;11730;51.248;22.534;2022-08-01T16:24:23;25.00;69.30
23122;DHT22;11730;51.248;22.534;2022-08-01T16:26:54;24.90;71.20
23122;DHT22;11730;51.248;22.534;2022-08-01T16:29:21;24.70;70.50
23122;DHT22;11730;51.248;22.534;2022-08-01T16:31:48;24.60;71.30
23122;DHT22;11730;51.248;22.534;2022-08-01T16:34:35;24.80;70.20
23122;DHT22;11730;51.248;22.534;2022-08-01T16:37:02;24.80;70.20